Time;durP1;ratioP1;P1;durP2;ratioP2;P2;SDS_P1;SDS_P2;PMS_P1;PMS_P2;Temp;Humidity;BMP_temperature;BMP_pressure;BME280_temperature;BME280_humidity;BME280_pressure;Samples;Min_cycle;Max_cycle;Signal;HPM_P1;HPM_P2
2022/09/10 00:01:43;;;;;;;1.00;0.57;;;;;;;15.88;96.28;96175.91;5036736;28;20205;-70
2022/09/10 00:04:11;;;;;;;3.00;0.60;;;;;;;15.93;95.97;96168.91;5036545;28;20213;-71
2022/09/10 00:06:38;;;;;;;1.98;0.82;;;;;;;15.92;94.98;96167.31;5039807;28;20248;-71
2022/09/10 00:09:07;;;;;;;2.13;0.77;;;;;;;15.97;94.34;96167.50;5039169;28;20198;-71
2022/09/10 00:11:34;;;;;;;1.65;0.65;;;;;;;15.90;94.17;96165.88;5040157;28;20224;-71
2022/09/10 00:14:02;;;;;;;2.33;0.77;;;;;;;16.00;94.85;96169.72;5039216;28;20205;-71
2022/09/10 00:16:30;;;;;;;1.40;0.77;;;;;;;15.96;94.40;96168.50;5040272;28;20228;-71
2022/09/10 00:18:58;;;;;;;1.80;0.57;;;;;;;15.95;95.50;96171.38;5040049;28;20208;-70
2022/09/10 00:21:25;;;;;;;3.22;0.88;;;;;;;15.94;96.12;96165.25;5039018;28;20204;-69
2022/09/10 00:23:51;;;;;;;2.60;0.60;;;;;;;15.88;96.10;96170.59;5039279;28;20213;-70
2022/09/10 00:26:21;;;;;;;1.15;0.65;;;;;;;15.93;96.82;96162.78;5039360;28;20299;-71
2022/09/10 00:28:49;;;;;;;1.05;0.60;;;;;;;15.97;96.71;96164.84;5039838;28;20660;-71
2022/09/10 00:31:16;;;;;;;0.45;0.45;;;;;;;15.99;96.77;96167.28;5038987;28;20260;-71
2022/09/10 00:33:43;;;;;;;2.58;0.63;;;;;;;15.92;97.00;96162.00;5039067;28;20216;-71
2022/09/10 00:36:14;;;;;;;4.70;0.70;;;;;;;15.95;97.84;96158.91;5038866;28;20205;-71
2022/09/10 00:38:41;;;;;;;1.15;0.50;;;;;;;15.67;96.75;96162.06;5039228;28;20209;-69
2022/09/10 00:41:08;;;;;;;0.95;0.60;;;;;;;15.90;96.90;96158.72;5039083;28;20209;-71
2022/09/10 00:43:55;;;;;;;1.02;0.52;;;;;;;16.06;94.87;96155.59;5038991;28;20201;-71
2022/09/10 00:46:28;;;;;;;3.25;0.70;;;;;;;16.06;96.14;96155.59;5038785;28;20215;-69
2022/09/10 00:48:57;;;;;;;1.98;0.60;;;;;;;15.88;96.39;96149.31;5039429;28;20220;-71
2022/09/10 00:51:26;;;;;;;1.40;0.50;;;;;;;15.85;96.36;96161.19;5039144;28;20225;-71
2022/09/10 00:53:54;;;;;;;0.50;0.50;;;;;;;15.92;96.44;96154.03;5038184;28;20295;-71
2022/09/10 00:56:20;;;;;;;2.67;1.00;;;;;;;15.70;97.09;96153.72;5036551;28;20696;-71
2022/09/10 00:58:48;;;;;;;0.75;0.70;;;;;;;15.80;96.73;96151.44;5039316;28;20212;-70
2022/09/10 01:01:17;;;;;;;2.78;0.52;;;;;;;15.71;98.22;96148.19;5038301;28;20255;-71
2022/09/10 01:03:44;;;;;;;0.88;0.88;;;;;;;15.57;98.39;96146.59;5038658;28;20201;-71
2022/09/10 01:06:12;;;;;;;0.63;0.57;;;;;;;15.63;98.66;96144.94;5039146;28;20211;-70
2022/09/10 01:08:38;;;;;;;2.42;0.60;;;;;;;15.69;98.28;96152.88;5038928;28;20205;-71
2022/09/10 01:11:21;;;;;;;4.43;0.70;;;;;;;15.71;97.86;96142.06;5037680;28;20732;-70
2022/09/10 01:14:05;;;;;;;1.83;0.60;;;;;;;15.73;97.69;96150.63;5038918;28;20205;-71
2022/09/10 01:16:44;;;;;;;1.38;0.60;;;;;;;15.59;97.18;96143.72;5037125;28;21086;-69
2022/09/10 01:19:24;;;;;;;2.92;0.60;;;;;;;15.64;97.93;96143.91;5038556;28;20205;-71
2022/09/10 01:22:05;;;;;;;3.53;1.00;;;;;;;15.62;97.71;96148.63;5037785;28;20205;-69
2022/09/10 01:24:54;;;;;;;1.92;0.65;;;;;;;15.61;98.25;96139.03;5038467;28;20205;-71
2022/09/10 01:27:36;;;;;;;1.10;0.60;;;;;;;15.58;98.63;96144.75;5037716;28;20244;-71
2022/09/10 01:30:08;;;;;;;0.75;0.60;;;;;;;15.45;99.46;96136.81;5038998;28;20259;-71
2022/09/10 01:32:44;;;;;;;1.77;0.70;;;;;;;15.39;99.54;96135.81;5037273;28;20252;-69
2022/09/10 01:35:16;;;;;;;2.28;0.70;;;;;;;15.36;100.00;96133.59;5038493;28;20209;-71
2022/09/10 01:37:47;;;;;;;1.15;0.57;;;;;;;15.33;100.00;96135.84;5038275;28;20225;-70
2022/09/10 01:40:16;;;;;;;1.35;0.70;;;;;;;15.30;100.00;96131.75;5038405;28;20205;-69
2022/09/10 01:42:45;;;;;;;3.38;0.65;;;;;;;15.22;100.00;96131.16;5037391;28;20319;-70
2022/09/10 01:45:13;;;;;;;4.10;0.70;;;;;;;15.24;100.00;96129.13;5038236;28;20209;-70
2022/09/10 01:47:57;;;;;;;1.80;0.55;;;;;;;15.28;100.00;96131.13;5038075;28;20693;-71
2022/09/10 01:50:32;;;;;;;2.08;0.63;;;;;;;15.28;100.00;96131.13;5037553;28;20205;-70
2022/09/10 01:53:14;;;;;;;2.05;0.60;;;;;;;15.27;100.00;96129.53;5037237;28;20205;-70
2022/09/10 01:55:50;;;;;;;1.58;0.60;;;;;;;15.24;100.00;96129.13;5038658;28;20216;-70
2022/09/10 01:58:25;;;;;;;1.55;0.80;;;;;;;15.28;100.00;96120.53;5035970;28;20229;-71
2022/09/10 02:00:55;;;;;;;2.70;0.70;;;;;;;15.26;100.00;96127.91;5038206;28;20223;-70
2022/09/10 02:03:26;;;;;;;1.60;0.80;;;;;;;15.25;100.00;96128.09;5036173;28;20764;-70
2022/09/10 02:05:54;;;;;;;1.40;0.80;;;;;;;15.25;100.00;96120.16;5037927;28;20205;-71
2022/09/10 02:08:25;;;;;;;2.05;0.82;;;;;;;15.30;100.00;96121.16;5037559;28;20231;-69
2022/09/10 02:10:55;;;;;;;1.58;0.70;;;;;;;15.28;100.00;96106.44;5037724;28;20288;-70
2022/09/10 02:13:24;;;;;;;1.90;0.70;;;;;;;15.29;100.00;96110.75;5037465;28;20209;-70
2022/09/10 02:15:51;;;;;;;2.70;0.68;;;;;;;15.22;100.00;96111.78;5037512;28;20575;-71
2022/09/10 02:18:19;;;;;;;1.42;0.70;;;;;;;15.20;100.00;96116.44;5037336;28;20282;-70
2022/09/10 02:20:46;;;;;;;1.52;0.73;;;;;;;15.09;100.00;96111.78;5037540;28;20646;-71
2022/09/10 02:23:15;;;;;;;1.90;0.60;;;;;;;15.17;100.00;96115.00;5036343;28;20205;-70
2022/09/10 02:25:49;;;;;;;3.28;0.95;;;;;;;15.20;100.00;96116.44;5036800;28;20212;-70
2022/09/10 02:28:16;;;;;;;3.00;1.10;;;;;;;15.04;100.00;96123.00;5034866;28;20587;-71
2022/09/10 02:30:43;;;;;;;6.00;0.90;;;;;;;15.12;100.00;96125.47;5037271;28;20232;-70
2022/09/10 02:33:10;;;;;;;2.35;0.70;;;;;;;15.15;100.00;96124.19;5036680;28;20583;-71
2022/09/10 02:35:37;;;;;;;3.40;0.80;;;;;;;15.11;100.00;96123.81;5037642;28;20212;-71
2022/09/10 02:38:04;;;;;;;0.60;0.60;;;;;;;15.12;100.00;96125.47;5037454;28;20328;-69
2022/09/10 02:40:31;;;;;;;2.70;0.80;;;;;;;15.05;100.00;96116.69;5036529;28;20208;-70
2022/09/10 02:42:57;;;;;;;0.88;0.70;;;;;;;15.09;100.00;96109.13;5036944;28;20201;-71
2022/09/10 02:45:24;;;;;;;1.20;0.75;;;;;;;15.09;100.00;96120.53;5036696;28;20213;-69
2022/09/10 02:47:53;;;;;;;1.25;0.70;;;;;;;15.09;100.00;96120.53;5037015;28;20302;-71
2022/09/10 02:50:20;;;;;;;0.95;0.85;;;;;;;15.01;100.00;96119.97;5037092;28;20263;-70
2022/09/10 02:52:48;;;;;;;1.15;0.70;;;;;;;14.98;100.00;96121.19;5036307;28;20705;-71
2022/09/10 02:55:15;;;;;;;2.70;0.60;;;;;;;15.03;100.00;96121.38;5036140;28;20201;-71
2022/09/10 02:57:42;;;;;;;1.75;0.80;;;;;;;15.01;100.00;96114.66;5034507;28;20425;-71
2022/09/10 03:00:10;;;;;;;1.33;0.90;;;;;;;15.03;100.00;96110.78;5036687;28;20247;-70
2022/09/10 03:02:36;;;;;;;1.95;0.70;;;;;;;15.00;100.00;96119.13;5036223;28;20204;-71
2022/09/10 03:05:05;;;;;;;0.98;0.60;;;;;;;15.06;100.00;96120.97;5036608;28;20213;-70
2022/09/10 03:07:33;;;;;;;1.42;0.80;;;;;;;15.01;100.00;96120.78;5036731;28;20216;-71
2022/09/10 03:09:59;;;;;;;2.58;0.77;;;;;;;15.02;100.00;96119.75;5036588;28;20196;-71
2022/09/10 03:12:26;;;;;;;1.42;0.80;;;;;;;14.98;100.00;96118.53;5035383;28;20217;-71
2022/09/10 03:14:52;;;;;;;1.92;0.93;;;;;;;15.04;100.00;96120.34;5036797;28;20213;-71
2022/09/10 03:17:19;;;;;;;1.95;0.85;;;;;;;15.07;100.00;96125.25;5036311;28;20231;-70
2022/09/10 03:19:45;;;;;;;3.15;1.00;;;;;;;15.07;100.00;96122.59;5036582;28;21079;-69
2022/09/10 03:22:13;;;;;;;1.83;0.90;;;;;;;15.14;100.00;96112.78;5035774;28;20212;-70
2022/09/10 03:24:40;;;;;;;2.95;0.90;;;;;;;15.08;100.00;96128.72;5036079;28;20209;-71
2022/09/10 03:27:07;;;;;;;5.15;0.80;;;;;;;15.00;100.00;96119.13;5035856;28;20225;-71
2022/09/10 03:29:33;;;;;;;6.60;0.90;;;;;;;15.01;100.00;96119.97;5036881;28;20216;-70
2022/09/10 03:32:00;;;;;;;2.70;0.93;;;;;;;14.97;100.00;96124.84;5036340;28;20225;-71
2022/09/10 03:34:26;;;;;;;1.63;1.25;;;;;;;15.09;100.00;96117.88;5035711;28;20201;-70
2022/09/10 03:36:53;;;;;;;1.17;0.70;;;;;;;15.12;100.00;96114.84;5035995;28;20225;-71
2022/09/10 03:39:21;;;;;;;1.67;0.80;;;;;;;15.03;100.00;96120.56;5038144;28;20747;-69
2022/09/10 03:41:47;;;;;;;0.98;0.82;;;;;;;15.11;100.00;96120.31;5040520;28;20203;-71
2022/09/10 03:44:15;;;;;;;0.80;0.70;;;;;;;15.11;100.00;96128.28;5040124;28;20205;-71
2022/09/10 03:46:42;;;;;;;1.83;0.90;;;;;;;15.14;100.00;96119.94;5039789;28;20236;-71
2022/09/10 03:49:09;;;;;;;0.82;0.60;;;;;;;15.13;100.00;96123.59;5039929;28;20216;-71
2022/09/10 03:51:35;;;;;;;4.85;0.80;;;;;;;15.19;100.00;96123.59;5039779;28;20315;-71
2022/09/10 03:54:02;;;;;;;2.25;0.73;;;;;;;15.19;100.00;96126.25;5040400;28;20287;-70
2022/09/10 03:56:30;;;;;;;2.50;0.90;;;;;;;15.35;100.00;96123.16;5036291;28;20232;-72
2022/09/10 03:58:57;;;;;;;1.63;0.80;;;;;;;15.25;100.00;96130.75;5040562;28;20619;-71
2022/09/10 04:01:23;;;;;;;1.48;1.00;;;;;;;15.21;100.00;96123.41;5040003;28;20270;-71
2022/09/10 04:03:53;;;;;;;1.38;0.77;;;;;;;15.25;100.00;96126.25;5039101;28;20236;-70
2022/09/10 04:06:20;;;;;;;1.63;1.08;;;;;;;15.22;100.00;96120.53;5040795;28;20216;-70
2022/09/10 04:08:48;;;;;;;1.70;0.80;;;;;;;15.03;100.00;96126.69;5039840;28;20212;-71
2022/09/10 04:11:15;;;;;;;3.83;0.93;;;;;;;14.87;100.00;96121.81;5039766;28;21016;-72
2022/09/10 04:13:43;;;;;;;2.60;0.77;;;;;;;15.16;100.00;96125.84;5039977;28;20201;-71
2022/09/10 04:16:10;;;;;;;2.05;0.70;;;;;;;14.86;100.00;96125.47;5039906;28;20990;-71
2022/09/10 04:18:37;;;;;;;0.93;0.70;;;;;;;14.83;100.00;96131.19;5038757;28;20201;-70
2022/09/10 04:21:04;;;;;;;3.70;0.90;;;;;;;14.69;100.00;96129.56;5040088;28;20221;-71
2022/09/10 04:23:31;;;;;;;3.60;0.70;;;;;;;14.78;100.00;96132.84;5039147;28;20255;-71
2022/09/10 04:25:58;;;;;;;0.75;0.75;;;;;;;14.76;100.00;96127.72;5040204;28;20227;-71
2022/09/10 04:28:24;;;;;;;3.05;0.75;;;;;;;14.75;100.00;96128.75;5039078;28;20221;-71
2022/09/10 04:30:53;;;;;;;0.82;0.65;;;;;;;14.78;100.00;96127.53;5039701;28;20669;-72
2022/09/10 04:33:19;;;;;;;2.35;0.80;;;;;;;14.73;100.00;96128.13;5038631;28;20236;-70
2022/09/10 04:35:46;;;;;;;3.13;0.60;;;;;;;14.70;100.00;96131.22;5039457;28;20208;-71
2022/09/10 04:38:12;;;;;;;0.93;0.70;;;;;;;14.52;100.00;96135.47;5038863;28;20616;-71
2022/09/10 04:40:39;;;;;;;1.67;0.60;;;;;;;14.46;100.00;96138.13;5040014;28;20212;-72
2022/09/10 04:43:05;;;;;;;1.33;0.93;;;;;;;14.41;100.00;96146.69;5038802;28;20204;-72
2022/09/10 04:45:33;;;;;;;2.25;1.00;;;;;;;14.41;100.00;96140.56;5038914;28;20205;-71
2022/09/10 04:48:01;;;;;;;0.60;0.60;;;;;;;14.55;100.00;96142.22;5039483;28;20241;-72
2022/09/10 04:50:27;;;;;;;2.10;0.60;;;;;;;14.54;100.00;96141.41;5039076;28;20653;-70
2022/09/10 04:52:54;;;;;;;1.02;0.75;;;;;;;14.45;100.00;96149.78;5037525;28;20229;-71
2022/09/10 04:55:20;;;;;;;1.98;0.80;;;;;;;14.46;100.00;96146.06;5035998;28;20744;-69
2022/09/10 04:57:47;;;;;;;2.47;0.77;;;;;;;14.51;100.00;96141.00;5036183;28;20232;-71
2022/09/10 05:00:14;;;;;;;1.13;0.70;;;;;;;14.45;100.00;96153.22;5038688;28;20229;-71
2022/09/10 05:02:42;;;;;;;1.70;0.70;;;;;;;14.52;100.00;96150.59;5038441;28;20200;-71
2022/09/10 05:05:10;;;;;;;0.50;0.50;;;;;;;14.28;100.00;96146.69;5039103;28;20640;-71
2022/09/10 05:07:36;;;;;;;1.13;0.60;;;;;;;14.49;100.00;96148.34;5038793;28;20232;-71
2022/09/10 05:10:03;;;;;;;2.45;0.55;;;;;;;14.33;100.00;96154.03;5038534;28;20766;-71
2022/09/10 05:12:30;;;;;;;0.60;0.57;;;;;;;14.44;100.00;96148.13;5037332;28;20221;-70
2022/09/10 05:14:56;;;;;;;1.33;0.80;;;;;;;14.31;100.00;96156.06;5038840;28;20874;-72
2022/09/10 05:17:23;;;;;;;1.95;0.50;;;;;;;14.47;100.00;96150.38;5038416;28;20225;-72
2022/09/10 05:19:49;;;;;;;0.73;0.60;;;;;;;14.50;100.00;96150.78;5037908;28;20205;-71
2022/09/10 05:22:17;;;;;;;3.65;0.70;;;;;;;14.55;100.00;96144.84;5037300;28;20205;-71
2022/09/10 05:24:44;;;;;;;2.85;0.60;;;;;;;14.44;100.00;96148.94;5038248;28;20205;-72
2022/09/10 05:27:10;;;;;;;6.40;0.68;;;;;;;14.42;100.00;96155.47;5038483;28;20236;-72
2022/09/10 05:29:37;;;;;;;1.63;0.70;;;;;;;14.52;100.00;96153.22;5038318;28;20208;-71
2022/09/10 05:32:03;;;;;;;2.22;0.70;;;;;;;14.51;100.00;96156.91;5038417;28;20576;-71
2022/09/10 05:34:29;;;;;;;1.88;0.70;;;;;;;14.66;100.00;96161.81;5037238;28;20209;-71
2022/09/10 05:36:56;;;;;;;2.00;0.68;;;;;;;14.46;100.00;96164.63;5037940;28;20789;-70
2022/09/10 05:39:24;;;;;;;0.90;0.63;;;;;;;14.56;100.00;96160.59;5038393;28;20209;-72
2022/09/10 05:41:51;;;;;;;1.35;0.63;;;;;;;14.62;100.00;96164.25;5038725;28;20201;-71
2022/09/10 05:44:17;;;;;;;1.35;0.70;;;;;;;14.62;100.00;96161.59;5036228;28;20653;-70
2022/09/10 05:46:45;;;;;;;1.15;0.60;;;;;;;14.58;100.00;96157.72;5038261;28;20221;-72
2022/09/10 05:49:12;;;;;;;1.58;0.70;;;;;;;14.64;100.00;96160.38;5036662;28;20228;-71
2022/09/10 05:51:38;;;;;;;0.65;0.60;;;;;;;14.64;100.00;96157.72;5038283;28;20233;-72
2022/09/10 05:54:05;;;;;;;1.85;0.68;;;;;;;14.61;100.00;96166.06;5036990;28;20225;-72
2022/09/10 05:56:33;;;;;;;1.38;0.60;;;;;;;14.61;100.00;96154.66;5033191;28;20603;-72
2022/09/10 05:59:02;;;;;;;1.95;0.75;;;;;;;14.37;100.00;96161.38;5037768;28;20205;-72
2022/09/10 06:01:30;;;;;;;0.52;0.52;;;;;;;14.48;100.00;96162.63;5036732;28;20587;-71
2022/09/10 06:03:57;;;;;;;0.63;0.60;;;;;;;14.66;100.00;96158.34;5037480;28;20303;-71
2022/09/10 06:06:26;;;;;;;0.60;0.57;;;;;;;14.74;100.00;96151.00;5037155;28;20205;-71
2022/09/10 06:08:53;;;;;;;1.65;0.95;;;;;;;14.85;100.00;96149.56;5038155;28;20274;-71
2022/09/10 06:11:20;;;;;;;1.50;0.73;;;;;;;14.93;100.00;96152.00;5037822;28;20208;-72
2022/09/10 06:13:49;;;;;;;0.80;0.70;;;;;;;14.91;100.00;96154.84;5036897;28;20225;-71
2022/09/10 06:16:16;;;;;;;2.80;0.82;;;;;;;14.95;100.00;96152.63;5037422;28;20205;-72
2022/09/10 06:18:43;;;;;;;2.60;0.75;;;;;;;14.71;100.00;96158.53;5037908;28;20221;-72
2022/09/10 06:21:13;;;;;;;2.25;0.88;;;;;;;15.00;100.00;96158.94;5037032;28;20208;-71
2022/09/10 06:23:39;;;;;;;1.35;0.80;;;;;;;15.05;100.00;96163.63;5036903;28;20197;-72
2022/09/10 06:26:09;;;;;;;1.95;0.80;;;;;;;15.05;100.00;96161.00;5037304;28;20212;-71
2022/09/10 06:28:35;;;;;;;1.80;0.90;;;;;;;15.05;100.00;96161.78;5037020;28;20233;-70
2022/09/10 06:31:04;;;;;;;1.20;0.88;;;;;;;15.11;100.00;96157.50;5037512;28;20220;-71
2022/09/10 06:33:31;;;;;;;2.50;0.77;;;;;;;14.98;100.00;96161.00;5037540;28;20306;-72
2022/09/10 06:35:58;;;;;;;5.47;0.80;;;;;;;14.87;100.00;96163.44;5036875;28;20197;-71
2022/09/10 06:38:28;;;;;;;1.58;0.75;;;;;;;15.08;100.00;96161.38;5036551;28;20225;-72
2022/09/10 06:40:56;;;;;;;1.65;0.80;;;;;;;15.11;100.00;96162.78;5037408;28;20220;-72
2022/09/10 06:43:24;;;;;;;4.05;0.75;;;;;;;15.11;100.00;96168.09;5036461;28;21286;-72
2022/09/10 06:45:52;;;;;;;2.65;0.80;;;;;;;15.21;100.00;96172.03;5037189;28;20205;-72
2022/09/10 06:48:20;;;;;;;2.28;0.77;;;;;;;15.27;100.00;96179.13;5036546;28;20257;-72
2022/09/10 06:50:51;;;;;;;0.40;0.38;;;;;;;15.19;100.00;96176.69;5036742;28;20201;-72
2022/09/10 06:53:20;;;;;;;1.67;0.70;;;;;;;15.11;100.00;96176.91;5034773;28;20282;-72
2022/09/10 06:55:48;;;;;;;0.95;0.80;;;;;;;15.34;100.00;96182.63;5036231;28;20205;-72
2022/09/10 06:58:15;;;;;;;3.15;0.70;;;;;;;15.45;100.00;96184.63;5033276;28;20319;-72
2022/09/10 07:00:42;;;;;;;1.83;0.70;;;;;;;15.45;100.00;96181.97;5035950;28;20197;-72
2022/09/10 07:03:08;;;;;;;2.88;0.70;;;;;;;15.45;100.00;96188.09;5035084;28;20657;-72
2022/09/10 07:05:36;;;;;;;1.95;0.60;;;;;;;15.55;100.00;96185.81;5036417;28;20288;-72
2022/09/10 07:08:04;;;;;;;0.82;0.55;;;;;;;15.56;100.00;96189.31;5036122;28;20229;-72
2022/09/10 07:10:31;;;;;;;0.85;0.50;;;;;;;15.59;100.00;96183.56;5036501;28;20201;-72
2022/09/10 07:12:59;;;;;;;1.20;0.70;;;;;;;15.70;100.00;96191.69;5035418;28;20256;-72
2022/09/10 07:15:26;;;;;;;2.33;1.00;;;;;;;15.71;100.00;96184.56;5035925;28;20324;-72
2022/09/10 07:17:53;;;;;;;6.80;1.08;;;;;;;15.67;100.00;96188.63;5035940;28;20229;-72
2022/09/10 07:20:24;;;;;;;2.60;0.70;;;;;;;15.72;100.00;96192.31;5036531;28;20205;-72
2022/09/10 07:22:54;;;;;;;1.63;0.70;;;;;;;16.02;100.00;96188.09;5035421;28;20205;-72
2022/09/10 07:25:20;;;;;;;1.27;0.70;;;;;;;15.88;100.00;96197.16;5036308;28;20205;-72
2022/09/10 07:27:47;;;;;;;2.97;1.02;;;;;;;15.90;100.00;96195.94;5035640;28;20244;-72
2022/09/10 07:30:13;;;;;;;1.75;1.10;;;;;;;15.94;100.00;96197.13;5036278;28;20700;-72
2022/09/10 07:32:40;;;;;;;2.58;1.48;;;;;;;15.90;100.00;96193.25;5035416;28;20236;-72
2022/09/10 07:35:07;;;;;;;1.30;0.80;;;;;;;15.90;100.00;96195.94;5034713;28;20201;-72
2022/09/10 07:37:34;;;;;;;6.43;1.40;;;;;;;15.76;100.00;96203.31;5036310;28;20228;-72
2022/09/10 07:40:03;;;;;;;1.92;1.67;;;;;;;15.85;100.00;96205.56;5035423;28;21158;-72
2022/09/10 07:42:29;;;;;;;2.10;1.58;;;;;;;15.74;100.00;96211.50;5035616;28;20205;-72
2022/09/10 07:44:56;;;;;;;3.90;1.60;;;;;;;15.86;100.00;96213.31;5036068;28;21288;-72
2022/09/10 07:47:23;;;;;;;3.97;1.98;;;;;;;15.96;100.00;96210.19;5035953;28;20232;-72
2022/09/10 07:49:51;;;;;;;2.72;1.35;;;;;;;15.84;100.00;96213.75;5035733;28;20209;-72
2022/09/10 07:52:17;;;;;;;3.35;1.80;;;;;;;15.92;100.00;96215.16;5035795;28;20205;-72
2022/09/10 07:54:44;;;;;;;1.80;1.10;;;;;;;15.89;100.00;96214.75;5035980;28;20282;-72
2022/09/10 07:57:12;;;;;;;1.38;1.23;;;;;;;16.00;100.00;96212.25;5035265;28;20589;-72
2022/09/10 07:59:38;;;;;;;2.60;1.52;;;;;;;15.96;100.00;96216.34;5036486;28;20216;-72
2022/09/10 08:02:06;;;;;;;3.05;1.00;;;;;;;15.97;100.00;96218.00;5036085;28;20201;-73
2022/09/10 08:04:35;;;;;;;2.10;1.17;;;;;;;16.07;100.00;96228.16;5035114;28;20229;-72
2022/09/10 08:07:01;;;;;;;2.83;1.30;;;;;;;16.05;100.00;96232.88;5036311;28;20224;-72
2022/09/10 08:09:28;;;;;;;1.58;0.90;;;;;;;16.01;100.00;96229.84;5035253;28;20205;-72
2022/09/10 08:11:54;;;;;;;1.00;0.90;;;;;;;16.25;100.00;96231.75;5035767;28;20216;-72
2022/09/10 08:14:22;;;;;;;1.65;1.33;;;;;;;16.48;100.00;96240.06;5034890;28;20233;-72
2022/09/10 08:16:49;;;;;;;1.60;0.98;;;;;;;16.26;100.00;96232.63;5035924;28;20274;-72
2022/09/10 08:19:16;;;;;;;0.60;0.57;;;;;;;16.29;100.00;96237.50;5035026;28;20292;-72
2022/09/10 08:21:44;;;;;;;1.20;0.90;;;;;;;16.31;100.00;96240.78;5036326;28;20197;-72
2022/09/10 08:24:12;;;;;;;1.20;0.95;;;;;;;16.67;100.00;96241.78;5034862;28;20751;-72
2022/09/10 08:26:38;;;;;;;0.77;0.77;;;;;;;16.77;100.00;96242.16;5038584;28;20282;-72
2022/09/10 08:29:05;;;;;;;2.53;1.00;;;;;;;16.58;100.00;96245.75;5039195;28;20692;-72
2022/09/10 08:31:33;;;;;;;1.13;0.75;;;;;;;16.70;100.00;96247.50;5037619;28;20201;-73
2022/09/10 08:34:00;;;;;;;1.20;0.60;;;;;;;16.62;100.00;96249.59;5038701;28;21417;-72
2022/09/10 08:36:26;;;;;;;3.38;0.73;;;;;;;16.76;100.00;96248.50;5035455;28;20685;-72
2022/09/10 08:38:53;;;;;;;2.45;0.90;;;;;;;16.88;100.00;96255.59;5038821;28;20209;-72
2022/09/10 08:41:28;;;;;;;0.82;0.70;;;;;;;17.04;100.00;96259.56;5038207;28;20319;-72
2022/09/10 08:44:00;;;;;;;3.58;0.93;;;;;;;17.19;100.00;96253.69;5038742;28;20627;-72
2022/09/10 08:46:29;;;;;;;1.30;0.70;;;;;;;17.24;100.00;96256.56;5038908;28;20233;-72
2022/09/10 08:49:11;;;;;;;3.13;0.80;;;;;;;17.28;100.00;96263.06;5039547;28;20228;-72
2022/09/10 08:51:44;;;;;;;1.50;1.00;;;;;;;17.03;100.00;96263.25;5036341;28;20208;-72
2022/09/10 08:54:15;;;;;;;1.38;0.98;;;;;;;16.80;100.00;96265.66;5035576;28;20719;-72
2022/09/10 08:56:42;;;;;;;2.72;0.70;;;;;;;16.84;100.00;96270.34;5038204;28;20217;-72
2022/09/10 08:59:21;;;;;;;0.98;0.70;;;;;;;16.91;100.00;96270.31;5037704;28;20982;-72
2022/09/10 09:01:51;;;;;;;3.10;1.10;;;;;;;16.66;100.00;96277.41;5037276;28;20201;-72
2022/09/10 09:04:32;;;;;;;3.08;0.80;;;;;;;16.81;100.00;96268.09;5037998;28;20201;-72
2022/09/10 09:07:02;;;;;;;1.33;0.82;;;;;;;16.74;100.00;96278.00;5037420;28;20232;-72
2022/09/10 09:09:29;;;;;;;0.40;0.40;;;;;;;16.61;100.00;96282.56;5036837;28;20202;-72
2022/09/10 09:12:05;;;;;;;0.80;0.75;;;;;;;16.79;100.00;96280.00;5038063;28;20212;-72
2022/09/10 09:14:43;;;;;;;0.90;0.60;;;;;;;16.61;100.00;96285.22;5036181;28;20217;-72
2022/09/10 09:17:33;;;;;;;1.98;0.80;;;;;;;16.54;100.00;96276.47;5037803;28;20232;-72
2022/09/10 09:20:14;;;;;;;0.73;0.40;;;;;;;16.48;100.00;96285.28;5037444;28;20827;-72
2022/09/10 09:22:49;;;;;;;1.75;0.40;;;;;;;16.46;100.00;96287.34;5036005;28;20201;-72
2022/09/10 09:25:22;;;;;;;3.97;0.70;;;;;;;16.63;100.00;96288.50;5036968;28;20668;-72
2022/09/10 09:27:53;;;;;;;0.82;0.70;;;;;;;16.52;100.00;96281.16;5033667;28;20228;-72
2022/09/10 09:30:22;;;;;;;1.58;0.73;;;;;;;16.63;100.00;96283.16;5037346;28;20212;-72
2022/09/10 09:32:50;;;;;;;1.25;1.10;;;;;;;16.88;100.00;96281.38;5036393;28;20694;-72
2022/09/10 09:35:24;;;;;;;3.20;2.05;;;;;;;17.11;100.00;96279.78;5033880;28;20228;-72
2022/09/10 09:38:03;;;;;;;1.65;1.00;;;;;;;17.32;97.88;96280.28;5035464;28;20576;-72
2022/09/10 09:40:36;;;;;;;0.60;0.60;;;;;;;17.35;96.52;96284.34;5037949;28;20204;-72
2022/09/10 09:43:12;;;;;;;3.05;1.10;;;;;;;17.64;96.81;96275.69;5035778;28;20237;-72
2022/09/10 09:45:42;;;;;;;1.30;1.20;;;;;;;17.68;93.18;96268.88;5035988;28;20205;-72
2022/09/10 09:48:12;;;;;;;2.58;1.00;;;;;;;18.04;95.06;96267.09;5036575;28;20233;-72
2022/09/10 09:50:42;;;;;;;2.45;0.70;;;;;;;18.22;92.36;96264.44;5037237;28;20233;-72
2022/09/10 09:53:14;;;;;;;0.57;0.55;;;;;;;18.33;90.78;96249.31;5035366;28;20220;-72
2022/09/10 09:55:45;;;;;;;2.20;0.70;;;;;;;18.13;89.62;96255.88;5036471;28;20216;-72
2022/09/10 09:58:30;;;;;;;0.80;0.60;;;;;;;17.82;90.70;96265.88;5036093;28;20222;-72
2022/09/10 10:01:24;;;;;;;0.60;0.60;;;;;;;17.75;91.07;96265.13;5036501;28;20201;-73
2022/09/10 10:03:58;;;;;;;1.35;0.65;;;;;;;17.94;90.41;96253.44;5021634;28;20215;-72
2022/09/10 10:06:31;;;;;;;2.17;0.90;;;;;;;18.03;90.46;96257.44;5036597;28;20203;-72
2022/09/10 10:09:04;;;;;;;0.65;0.50;;;;;;;17.92;91.14;96250.16;5035925;28;20204;-72
2022/09/10 10:11:53;;;;;;;2.05;0.73;;;;;;;18.33;89.84;96246.63;5036315;28;20197;-72
2022/09/10 10:14:25;;;;;;;0.70;0.60;;;;;;;18.47;88.51;96237.44;5030636;28;20225;-72
2022/09/10 10:16:54;;;;;;;2.10;0.60;;;;;;;18.59;86.54;96237.47;5036528;28;20228;-72
2022/09/10 10:19:32;;;;;;;0.88;0.52;;;;;;;18.94;83.61;96241.91;5037298;28;20220;-72
2022/09/10 10:22:24;;;;;;;62.28;24.27;;;;;;;18.78;85.75;96242.53;5037071;28;20728;-72
2022/09/10 10:24:53;;;;;;;1.80;0.63;;;;;;;18.54;83.27;96230.13;5036974;28;20204;-72
2022/09/10 10:27:26;;;;;;;0.60;0.50;;;;;;;19.00;82.75;96232.97;5036516;28;20224;-72
2022/09/10 10:29:55;;;;;;;1.85;0.73;;;;;;;18.69;82.05;96230.56;5035120;28;20713;-73
2022/09/10 10:32:31;;;;;;;1.30;1.00;;;;;;;18.52;81.78;96221.56;5035095;28;20209;-72
2022/09/10 10:35:11;;;;;;;1.55;0.93;;;;;;;18.83;84.98;96218.66;5036876;28;20269;-72
2022/09/10 10:37:46;;;;;;;1.48;0.57;;;;;;;18.95;83.95;96222.16;5036672;28;20228;-73
2022/09/10 10:40:26;;;;;;;0.90;0.57;;;;;;;18.65;84.79;96220.56;5036334;28;20201;-72
2022/09/10 10:43:02;;;;;;;3.50;1.23;;;;;;;18.36;85.84;96226.69;5036172;28;20310;-72
2022/09/10 10:45:37;;;;;;;3.47;1.13;;;;;;;17.89;91.08;96245.28;5036749;28;20197;-72
2022/09/10 10:48:11;;;;;;;3.05;0.82;;;;;;;17.30;100.00;96244.25;5036156;28;20240;-73
2022/09/10 10:50:49;;;;;;;7.88;1.05;;;;;;;16.89;100.00;96245.75;5036359;28;20208;-73
2022/09/10 10:53:29;;;;;;;4.13;1.05;;;;;;;16.92;100.00;96245.34;5036083;28;20921;-73
2022/09/10 10:56:03;;;;;;;1.73;0.80;;;;;;;16.96;100.00;96239.34;5036310;28;20200;-73
2022/09/10 10:58:52;;;;;;;2.65;0.75;;;;;;;16.92;100.00;96240.00;5036100;28;20220;-73
2022/09/10 11:01:22;;;;;;;1.25;0.70;;;;;;;17.31;100.00;96230.69;5036175;28;20722;-74
2022/09/10 11:03:59;;;;;;;1.55;0.60;;;;;;;17.38;100.00;96226.13;5035913;28;20200;-73
2022/09/10 11:06:34;;;;;;;1.00;0.80;;;;;;;17.71;100.00;96224.75;5035781;28;20291;-71
2022/09/10 11:09:06;;;;;;;2.92;1.00;;;;;;;17.81;100.00;96226.94;5036646;28;20216;-73
2022/09/10 11:11:39;;;;;;;1.80;0.70;;;;;;;17.57;100.00;96234.97;5036405;28;20212;-73
2022/09/10 11:14:16;;;;;;;2.45;0.90;;;;;;;17.56;100.00;96233.34;5035498;28;21015;-72
2022/09/10 11:16:50;;;;;;;0.70;0.70;;;;;;;17.58;100.00;96234.75;5036438;28;20220;-72
2022/09/10 11:19:23;;;;;;;1.73;0.52;;;;;;;17.28;100.00;96231.13;5035940;28;20201;-72
2022/09/10 11:21:53;;;;;;;1.95;0.80;;;;;;;17.18;100.00;96230.78;5036358;28;20216;-73
2022/09/10 11:24:26;;;;;;;3.33;0.80;;;;;;;17.26;100.00;96222.56;5036209;28;20207;-73
2022/09/10 11:26:59;;;;;;;0.85;0.80;;;;;;;17.16;100.00;96224.84;5036244;28;20256;-72
2022/09/10 11:29:36;;;;;;;1.45;0.93;;;;;;;16.97;100.00;96227.69;5035917;28;20209;-73
2022/09/10 11:32:07;;;;;;;2.17;0.90;;;;;;;16.84;100.00;96213.63;5037160;28;20205;-71
2022/09/10 11:34:42;;;;;;;1.38;0.85;;;;;;;16.90;100.00;96215.44;5035359;28;21070;-72
2022/09/10 11:37:15;;;;;;;4.20;1.17;;;;;;;16.89;100.00;96229.78;5032553;28;20270;-72
2022/09/10 11:39:46;;;;;;;1.50;0.95;;;;;;;16.79;100.00;96218.78;5036546;28;20212;-72